createdAt,value
2017-10-26T00:02:09.651Z,102043.19
2017-10-26T00:04:37.993Z,102047.31
2017-10-26T00:07:07.131Z,102052.41
2017-10-26T00:09:35.696Z,102057.66
2017-10-26T00:12:04.053Z,102064.97
2017-10-26T00:14:33.478Z,102072.55
2017-10-26T00:17:01.830Z,102056.72
2017-10-26T00:19:30.980Z,102058.29
2017-10-26T00:21:59.338Z,102059.00
2017-10-26T00:24:27.684Z,102064.63
2017-10-26T00:26:56.050Z,102061.48
2017-10-26T00:29:24.427Z,102065.19
2017-10-26T00:31:52.782Z,102059.16
2017-10-26T00:34:21.828Z,102060.11
2017-10-26T00:36:51.033Z,102067.87
2017-10-26T00:39:20.158Z,102067.45
2017-10-26T00:41:48.541Z,102065.17
2017-10-26T00:44:16.969Z,102071.82
2017-10-26T00:46:46.346Z,102073.55
2017-10-26T00:49:14.709Z,102071.53
2017-10-26T00:51:43.311Z,102074.56
2017-10-26T00:54:11.656Z,102073.27
2017-10-26T00:56:39.992Z,102070.91
2017-10-26T00:59:08.564Z,102062.41
2017-10-26T01:01:36.911Z,102064.39
2017-10-26T01:04:05.842Z,102072.84
2017-10-26T01:06:35.000Z,102068.97
2017-10-26T01:09:04.173Z,102063.53
2017-10-26T01:11:32.506Z,102057.61
2017-10-26T01:14:01.089Z,102066.04
2017-10-26T01:16:30.059Z,102065.43
2017-10-26T01:18:58.634Z,102053.03
2017-10-26T01:21:27.096Z,102059.75
2017-10-26T01:23:56.029Z,102065.45
2017-10-26T01:26:24.384Z,102066.39
2017-10-26T01:28:52.752Z,102066.76
2017-10-26T01:31:21.097Z,102057.34
2017-10-26T01:33:49.431Z,102057.86
2017-10-26T01:36:17.815Z,102060.60
2017-10-26T01:38:46.162Z,102059.75
2017-10-26T01:41:14.538Z,102073.92
2017-10-26T01:43:43.050Z,102072.03
2017-10-26T01:46:11.511Z,102065.52
2017-10-26T01:48:40.185Z,102080.97
2017-10-26T01:51:08.577Z,102075.17
2017-10-26T01:53:36.921Z,102080.18
2017-10-26T01:56:06.602Z,102076.04
2017-10-26T01:58:34.974Z,102086.17
2017-10-26T02:01:03.320Z,102081.83
2017-10-26T02:03:31.649Z,102072.61
2017-10-26T02:06:00.095Z,102086.30
2017-10-26T02:08:29.146Z,102071.75
2017-10-26T02:10:58.249Z,102083.41
2017-10-26T02:13:29.115Z,102090.14
2017-10-26T02:15:57.465Z,102098.08
2017-10-26T02:18:26.573Z,102088.84
2017-10-26T02:20:54.951Z,102086.59
2017-10-26T02:23:24.054Z,102080.86
2017-10-26T02:25:52.466Z,102081.02
2017-10-26T02:28:22.370Z,102076.48
2017-10-26T02:31:08.522Z,102066.20
2017-10-26T02:33:37.696Z,102058.50
2017-10-26T02:36:06.830Z,102063.97
2017-10-26T02:38:35.161Z,102064.12
2017-10-26T02:41:03.978Z,102062.77
2017-10-26T02:43:33.858Z,102058.05
2017-10-26T02:46:03.883Z,102051.67
2017-10-26T02:48:32.871Z,102059.69
2017-10-26T02:51:02.225Z,102051.44
2017-10-26T02:53:30.577Z,102054.70
2017-10-26T02:55:58.960Z,102080.47
2017-10-26T02:58:27.312Z,102069.05
2017-10-26T03:00:55.694Z,102059.28
2017-10-26T03:03:24.165Z,102068.67
2017-10-26T03:05:53.109Z,102060.70
2017-10-26T03:08:22.862Z,102061.89
2017-10-26T03:10:51.862Z,102065.27
2017-10-26T03:13:20.202Z,102054.98
2017-10-26T03:15:48.541Z,102060.71
2017-10-26T03:18:16.980Z,102062.91
2017-10-26T03:20:45.543Z,102067.20
2017-10-26T03:23:14.795Z,102076.16
2017-10-26T03:25:43.171Z,102087.16
2017-10-26T03:28:11.511Z,102080.36
2017-10-26T03:30:40.770Z,102067.87
2017-10-26T03:33:09.522Z,102057.84
2017-10-26T03:35:39.482Z,102076.03
2017-10-26T03:38:08.890Z,102077.84
2017-10-26T03:40:37.575Z,102065.52
2017-10-26T03:43:05.952Z,102070.75
2017-10-26T03:45:34.288Z,102078.27
2017-10-26T03:48:02.741Z,102059.96
2017-10-26T03:50:31.091Z,102049.23
2017-10-26T03:53:00.230Z,102068.81
2017-10-26T03:55:29.554Z,102063.41
2017-10-26T03:57:59.093Z,102075.02
2017-10-26T04:00:27.437Z,102080.31
2017-10-26T04:02:55.835Z,102077.61
2017-10-26T04:05:24.200Z,102072.54
2017-10-26T04:07:52.782Z,102073.76
2017-10-26T04:10:21.710Z,102070.77
2017-10-26T04:12:50.398Z,102077.01
2017-10-26T04:15:19.682Z,102087.84
2017-10-26T04:17:49.494Z,102077.69
2017-10-26T04:20:17.847Z,102081.37
2017-10-26T04:22:46.193Z,102086.52
2017-10-26T04:25:16.164Z,102083.48
2017-10-26T04:27:45.143Z,102080.08
2017-10-26T04:30:13.490Z,102070.57
2017-10-26T04:32:42.679Z,102047.91
2017-10-26T04:35:11.953Z,102047.98
2017-10-26T04:37:41.104Z,102042.47
2017-10-26T04:40:09.648Z,102037.25
2017-10-26T04:42:38.760Z,102048.02
2017-10-26T04:45:07.102Z,102061.73
2017-10-26T04:47:35.487Z,102062.89
2017-10-26T04:50:03.847Z,102047.37
2017-10-26T04:52:33.227Z,102036.22
2017-10-26T04:55:01.637Z,102021.23
2017-10-26T04:57:30.202Z,102016.39
2017-10-26T04:59:58.574Z,102010.47
2017-10-26T05:02:27.353Z,102034.97
2017-10-26T05:04:55.703Z,102052.20
2017-10-26T05:07:24.828Z,102059.26
2017-10-26T05:09:53.204Z,102066.73
2017-10-26T05:12:21.642Z,102064.84
2017-10-26T05:14:50.006Z,102046.13
2017-10-26T05:17:18.390Z,102048.97
2017-10-26T05:19:46.737Z,102042.92
2017-10-26T05:22:15.998Z,102033.41
2017-10-26T05:24:44.518Z,102034.05
2017-10-26T05:27:13.300Z,102047.81
2017-10-26T05:29:42.874Z,102053.58
2017-10-26T05:32:13.613Z,102053.30
2017-10-26T05:34:41.991Z,102054.71
2017-10-26T05:37:10.340Z,102040.98
2017-10-26T05:39:40.261Z,102037.66
2017-10-26T05:42:09.998Z,102041.11
2017-10-26T05:44:38.385Z,102041.91
2017-10-26T05:47:07.643Z,102035.16
2017-10-26T05:49:36.461Z,102031.89
2017-10-26T05:52:05.909Z,102014.48
2017-10-26T05:54:34.297Z,102020.02
2017-10-26T05:57:02.649Z,102024.48
2017-10-26T05:59:30.998Z,102030.03
2017-10-26T06:02:00.871Z,102020.06
2017-10-26T06:04:29.254Z,102018.59
2017-10-26T06:06:58.022Z,102029.19
2017-10-26T06:09:26.466Z,102028.48
2017-10-26T06:11:55.605Z,102037.55
2017-10-26T06:14:23.970Z,102029.15
2017-10-26T06:16:53.325Z,102019.22
2017-10-26T06:19:21.678Z,102010.44
2017-10-26T06:21:50.048Z,102010.45
2017-10-26T06:24:18.432Z,102024.67
2017-10-26T06:26:47.396Z,102028.08
2017-10-26T06:29:15.760Z,102038.02
2017-10-26T06:31:44.501Z,102031.41
2017-10-26T06:34:12.880Z,102031.99
2017-10-26T06:36:41.451Z,102029.48
2017-10-26T06:39:11.023Z,102034.78
2017-10-26T06:41:40.945Z,102039.09
2017-10-26T06:44:09.286Z,102039.38
2017-10-26T06:46:37.658Z,102049.43
2017-10-26T06:49:06.815Z,102046.05
2017-10-26T06:51:35.175Z,102045.65
2017-10-26T06:54:03.871Z,102077.58
2017-10-26T06:56:32.896Z,102069.19
2017-10-26T06:59:01.281Z,102061.60
2017-10-26T07:01:30.405Z,102053.50
2017-10-26T07:03:58.761Z,102042.12
2017-10-26T07:06:27.096Z,102041.02
2017-10-26T07:08:55.470Z,102035.05
2017-10-26T07:11:24.106Z,102040.68
2017-10-26T07:13:52.470Z,102057.52
2017-10-26T07:16:22.150Z,102044.11
2017-10-26T07:18:50.826Z,102051.05
2017-10-26T07:21:19.763Z,102050.23
2017-10-26T07:23:48.253Z,102056.35
2017-10-26T07:26:17.323Z,102052.01
2017-10-26T07:28:45.679Z,102050.20
2017-10-26T07:31:15.216Z,102044.91
2017-10-26T07:33:43.954Z,102044.05
2017-10-26T07:36:12.345Z,102049.16
2017-10-26T07:38:41.550Z,102047.52
2017-10-26T07:41:09.876Z,102051.95
2017-10-26T07:43:38.458Z,102054.45
2017-10-26T07:46:06.881Z,102058.11
2017-10-26T07:48:35.985Z,102059.82
2017-10-26T07:51:05.113Z,102055.03
2017-10-26T07:53:33.485Z,102055.64
2017-10-26T07:56:01.888Z,102058.65
2017-10-26T07:58:30.278Z,102052.54
2017-10-26T08:00:58.739Z,102051.32
2017-10-26T08:03:28.844Z,102044.41
2017-10-26T08:05:57.195Z,102039.45
2017-10-26T08:08:27.118Z,102029.38
2017-10-26T08:10:56.233Z,102026.34
2017-10-26T08:13:24.664Z,102037.34
2017-10-26T08:15:53.809Z,102022.74
2017-10-26T08:18:22.276Z,102028.88
2017-10-26T08:20:50.640Z,102018.88
2017-10-26T08:23:20.379Z,102018.60
2017-10-26T08:25:48.755Z,102028.16
2017-10-26T08:28:17.109Z,102026.25
2017-10-26T08:30:46.088Z,102034.81
2017-10-26T08:33:15.050Z,102026.52
2017-10-26T08:35:43.562Z,102024.56
2017-10-26T08:38:11.987Z,102021.66
2017-10-26T08:40:40.342Z,102026.04
2017-10-26T08:43:08.724Z,102027.94
2017-10-26T08:45:38.046Z,102016.92
2017-10-26T08:48:06.722Z,102020.74
2017-10-26T08:50:35.074Z,102022.24
2017-10-26T08:53:04.221Z,102018.20
2017-10-26T08:55:33.255Z,102014.09
2017-10-26T08:58:01.612Z,102015.77
2017-10-26T09:00:29.995Z,102014.33
2017-10-26T09:02:59.129Z,102016.41
2017-10-26T09:05:28.842Z,102013.60
2017-10-26T09:07:57.423Z,102015.86
2017-10-26T09:10:26.552Z,102010.72
2017-10-26T09:12:54.890Z,102008.83
2017-10-26T09:15:24.301Z,102000.47
2017-10-26T09:17:53.418Z,101997.29
2017-10-26T09:20:21.769Z,101997.83
2017-10-26T09:22:50.369Z,101989.72
2017-10-26T09:25:19.499Z,101995.74
2017-10-26T09:27:48.890Z,101987.05
2017-10-26T09:30:17.777Z,102001.03
2017-10-26T09:32:46.105Z,102003.66
2017-10-26T09:35:14.600Z,102011.73
2017-10-26T09:37:43.025Z,102011.64
2017-10-26T09:40:11.462Z,102007.23
2017-10-26T09:42:40.605Z,101999.16
2017-10-26T09:45:09.193Z,101997.69
2017-10-26T09:47:37.563Z,101996.00
2017-10-26T09:50:05.905Z,101987.05
2017-10-26T09:52:36.355Z,101988.20
2017-10-26T09:55:05.318Z,101981.52
2017-10-26T09:57:33.678Z,101990.31
2017-10-26T10:00:02.049Z,101992.73
2017-10-26T10:02:30.411Z,101989.31
2017-10-26T10:04:59.520Z,101990.95
2017-10-26T10:07:27.890Z,101995.98
2017-10-26T10:09:56.355Z,101990.09
2017-10-26T10:12:24.720Z,101988.17
2017-10-26T10:14:54.134Z,101984.06
2017-10-26T10:17:23.436Z,101982.95
2017-10-26T10:19:51.802Z,101976.89
2017-10-26T10:22:20.963Z,101975.27
2017-10-26T10:24:50.144Z,101979.70
2017-10-26T10:27:18.508Z,101973.13
2017-10-26T10:29:46.893Z,101973.47
2017-10-26T10:32:16.212Z,101972.35
2017-10-26T10:34:44.645Z,101978.60
2017-10-26T10:37:13.463Z,101971.34
2017-10-26T10:39:42.375Z,101960.47
2017-10-26T10:42:10.754Z,101955.69
2017-10-26T10:44:39.146Z,101970.55
2017-10-26T10:47:07.719Z,101961.39
2017-10-26T10:49:36.093Z,101968.97
2017-10-26T10:52:04.481Z,101971.44
2017-10-26T10:54:32.828Z,101972.04
2017-10-26T10:57:01.430Z,101966.72
2017-10-26T10:59:35.269Z,101960.33
2017-10-26T11:02:03.663Z,101958.39
2017-10-26T11:04:32.015Z,101947.14
2017-10-26T11:07:00.377Z,101951.28
2017-10-26T11:09:29.482Z,101946.91
2017-10-26T11:11:57.849Z,101953.72
2017-10-26T11:14:26.224Z,101948.68
2017-10-26T11:16:54.625Z,101943.83
2017-10-26T11:19:24.728Z,101948.53
2017-10-26T11:21:54.596Z,101941.45
2017-10-26T11:24:23.710Z,101940.88
2017-10-26T11:26:52.897Z,101929.73
2017-10-26T11:29:22.022Z,101927.05
2017-10-26T11:31:51.119Z,101928.30
2017-10-26T11:34:19.515Z,101932.75
2017-10-26T11:36:47.910Z,101930.32
2017-10-26T11:39:17.957Z,101924.77
2017-10-26T11:41:47.491Z,101917.16
2017-10-26T11:44:15.943Z,101924.76
2017-10-26T11:46:45.049Z,101918.80
2017-10-26T11:49:14.150Z,101911.13
2017-10-26T11:51:43.310Z,101904.87
2017-10-26T11:54:11.667Z,101904.30
2017-10-26T11:56:40.580Z,101904.45
2017-10-26T11:59:08.984Z,101914.34
2017-10-26T12:01:38.287Z,101908.14
2017-10-26T12:04:07.271Z,101907.28
2017-10-26T12:06:35.805Z,101917.09
